Corpus Christi, Texas
Current Conditions -  °F | °C
As of 7:51 PM on Sunday 25 Jan 2015 (Local Time) from KCRP Reporting Station
Overcast Overcast  
Wind Chill: 13°   Ceiling: 25000
Heat Index: 13°   Visibility: 10mi
Dew Point:   Wind: 8mph
Humidity: 64%   Direction: 360°N
Pressure: 30.17"   Gusts: NA
Location:  27.8°N, 97.4°W
Report Text: KCRP 260151Z 36007KT 10SM SCT170 OVC250 13/07 A3017 RMK AO2 SLP215 T01330067 $
Loading
Personal Weather Stations






























Interactive Weather Map New forecast layout! Learn more

10-Day Weather Forecast

Advertisements
Track Severe Weather on mobile